Decoded Metar for YBAS (ALICE SPRINGS in AUSTRALIA) (IATA:ASP) | Meteo·Mobile Aviation Weather
aviador You're here:

YBAS Decoded Metar

ALICE SPRINGS in AUSTRALIA
Report Time2019-10-21 08:00:00
UTC Time2019-10-21 08:40:19
Flight Rules vfr VFR
Wind120° at 10 kt
W.Decomp.*RWY 12: 10.0 kt HW 0.9 kt LCW
RWY 17: 5.7 kt HW 8.2 kt LCW
Visibility9999 m
Phenomena:N/A
Clouds:N/A
Expected CloudBase > 15,600 ft AGL from Temp-Dew spread
CeilingNone
Temp29°C (ISA +18)
Dew Point-10°C (7% RH)
Heat Index27.4°C
AAT22.3°C
QNH1018 hPa
Density Alt3,658 ft
Elevation1,775 ft
Report Wrong Elevation
Raw Report
YBAS 210800Z AUTO 12010KT 9999 // NCD 29/M10 Q1018
RF00.0/000.0=

Extra information for YBAS:More info

Metar Taf Metar & Taf Last 4 Metars F.Rules Stats Wind Profile Meteogram Temp Stats Airport Information Weather charts Add Link Nearby VenuesMetar ALERT Operation Metar Decoded Social comments